Huvudsida
METAR-TAF:

METAR-TAF

Flygplatser :

Salt Lake City International Airport

Salt Lake City, Utah, USA

latitud: 40-46-41N, longitud: 111-58-10W, höjd: 1288 m

Aktuellt väderrapport

Denna rapport gjordes för 1 timme och 2 minuter sedan, klockan 07:54 UTC
Stilla vind
Temperatur -1°C
Fuktighet 86%
Tryck 1026 hPa
Sikt: 8.0 km
Få moln på en höjd av 20000 ft
fuktdis

METAR: KSLC 160754Z 00000KT 5SM BR FEW200 M01/M03 A3029 RMK AO2 SLP263 T10111028 $

Tid: 01:56 (08:56 UTC)

Väderprognos

Denna rapport gjordes för 4 minuter sedan, klockan 08:52 UTC
Prognos gäller från 16 kl. 09 UTC till 17 kl. 12 UTC
Vind 5 kt från syd/sydost
Sikt: 6.4 km
Spridda moln på en höjd av 20000 ft
fuktdis
Från 16 kl. 2000 UTC
Vind 5 kt från nordväst
Sikt: 9.7 km
Spridda moln på en höjd av 20000 ft
torrdis
Från 17 kl. 0300 UTC
Vind 6 kt från syd
Sikt: 6.4 km
Spridda moln på en höjd av 20000 ft
fuktdis

TAF: KSLC 160852Z 1609/1712 16005KT 4SM BR SCT200 FM162000 32005KT 6SM HZ SCT200 FM170300 17006KT 4SM BR SCT200

Aktuella väderrapporter och prognoser från 4000 flygplatser (METAR- och TAF-rapporter).

De tillgängliga stationerna syns som gula och röda prickar på kartan.

För musen över prickarna för att se namnen på stationerna.

Klicka sedan för att få väderrapporter och prognoser.

För att ändra kartan: Klicka på de gröna knapparna med ett svart kors på för att zooma in; den gröna knappen med ett streck på för att zooma ut; eller på de gröna pilarna för angränsande kartor.


METAR-TAF: